Tiempo atmosférico en la estación meteorológica de Tuineje, Las Palmas (1 m.)



Fecha
DESCASC
Temp. máxima en grados centígrados (hora)
DESCASC
Temp. mínima en grados centígrados (hora)
DESCASC
Temp. media en grados centígrados
DESCASC
Racha de viento máxima en m/sg (hora)
DESCASC
Velocidad máxima media en intervalos de 10 minutos(hora)
DESCASC
Precipitaciones diarias en mm
DESCASC
Precipitaciones de 00:00 a 06:00 en mm
DESCASC
Precipitaciones de 06:00 a 12:00 en mm
DESCASC
Precipitaciones de 12:00 a 18:00 en mm
DESCASC
Precipitaciones de 18:00 a 24:00 en mm
DESCASC

Gráficas

Temp. máximas Temp. mínimas Temp. medias Precipitaciones Rachas de viento máximas Velocidades máximas media en intervalos de 10 minutos

Datos horarios

Fecha y hora oficial Temperatura (ºC) Velocidad del viento (km/h) Dirección del viento Racha (km/h) Dirección de racha Precipitación (mm) Presión (hPa) Tendencia (hPa) Humedad (%)
2019-12-09 23:00:00 17.7 10 Norte 20 Norte 0 -- -- 78
2019-12-09 22:00:00 18.1 12 Norte 24 Norte 0 -- -- 78
2019-12-09 21:00:00 18.3 13 Norte 25 Norte 0 -- -- 76
2019-12-09 20:00:00 18.7 18 Norte 30 Norte 0 -- -- 75
2019-12-09 19:00:00 19 17 Norte 26 Norte 0 -- -- 74
2019-12-09 18:00:00 19.7 12 Nordeste 23 Nordeste 0 -- -- 69
2019-12-09 17:00:00 20.7 17 Nordeste 28 Norte 0 -- -- 65
2019-12-09 16:00:00 21.4 15 Nordeste 37 Nordeste 0 -- -- 62
2019-12-09 15:00:00 21.4 19 Nordeste 30 Nordeste 0 -- -- 60
2019-12-09 14:00:00 21.7 20 Nordeste 36 Norte 0 -- -- 60
2019-12-09 13:00:00 21.5 19 Nordeste 33 Nordeste 0 -- -- 61
2019-12-09 12:00:00 21.2 23 Nordeste 32 Nordeste 0 -- -- 61
2019-12-09 11:00:00 20.9 21 Nordeste 35 Nordeste 0 -- -- 64
2019-12-09 10:00:00 20.6 16 Nordeste 28 Nordeste 0 -- -- 66
2019-12-09 09:00:00 19.4 19 Nordeste 28 Nordeste 0 -- -- 71
2019-12-09 08:00:00 18.3 12 Nordeste 26 Nordeste 0 -- -- 75
2019-12-09 07:00:00 18.4 15 Nordeste 29 Nordeste 0 -- -- 74
2019-12-09 06:00:00 18.4 21 Nordeste 29 Norte 0 -- -- 74
2019-12-09 05:00:00 18.1 16 Norte 28 Nordeste 0 -- -- 74
2019-12-09 04:00:00 18.4 17 Nordeste 31 Norte 0 -- -- 73
2019-12-09 03:00:00 18.2 17 Norte 33 Norte 0 -- -- 72
2019-12-09 02:00:00 18.4 15 Nordeste 26 Nordeste 0 -- -- 71
2019-12-09 01:00:00 18.5 16 Nordeste 35 Nordeste 0 -- -- 70
2019-12-09 00:00:00 18.6 22 Nordeste 39 Norte 0 -- -- 69
2019-12-08 23:00:00 18.9 22 Nordeste 39 Nordeste 0 -- -- 69
2019-12-08 22:00:00 18.9 23 Nordeste 36 Nordeste 0 -- -- 68
2019-12-08 21:00:00 18.6 18 Nordeste 30 Norte 0 -- -- 70
2019-12-08 20:00:00 18.8 19 Nordeste 32 Nordeste 0 -- -- 69
2019-12-08 19:00:00 18.9 20 Nordeste 35 Nordeste 0 -- -- 69
2019-12-08 18:00:00 19.3 20 Nordeste 36 Nordeste 0 -- -- 66
2019-12-08 17:00:00 20.1 24 Nordeste 40 Nordeste 0 -- -- 65
2019-12-08 16:00:00 20.5 26 Nordeste 35 Nordeste 0 -- -- 63
2019-12-08 15:00:00 20.7 21 Nordeste 35 Norte 0 -- -- 58
2019-12-08 14:00:00 20.8 21 Nordeste 33 Nordeste 0 -- -- 56
2019-12-08 13:00:00 20.9 23 Norte 37 Norte 0 -- -- 52
2019-12-08 12:00:00 20.4 19 Nordeste 35 Norte 0 -- -- 62
2019-12-08 11:00:00 19.7 19 Nordeste 32 Nordeste 0 -- -- 62
2019-12-08 10:00:00 19.3 19 Nordeste 28 Nordeste 0 -- -- 65
2019-12-08 09:00:00 17.8 10 Nordeste 19 Nordeste 0 -- -- 73
2019-12-08 08:00:00 15.5 8 Nordeste 15 Nordeste 0 -- -- 81
2019-12-08 07:00:00 16.9 10 Norte 22 Norte 0 -- -- 74
2019-12-08 06:00:00 16.8 12 Nordeste 22 Nordeste 0 -- -- 77
2019-12-08 05:00:00 17.2 12 Norte 20 Norte 0 -- -- 75
2019-12-08 04:00:00 17.2 11 Norte 24 Norte 0 -- -- 76
2019-12-08 03:00:00 17.4 12 Norte 21 Norte 0 -- -- 77
2019-12-08 02:00:00 17.4 11 Norte 28 Nordeste 0 -- -- 79
2019-12-08 01:00:00 18 14 Nordeste 24 Nordeste 0.4 -- -- 81
2019-12-08 00:00:00 18.3 13 Norte 26 Nordeste 0.2 -- -- 79
2019-12-07 23:00:00 19.1 15 Nordeste 29 Norte 0 -- -- 72
2019-12-07 22:00:00 18.9 16 Nordeste 27 Nordeste 0 -- -- 72
2019-12-07 21:00:00 18.9 14 Nordeste 28 Norte 0 -- -- 72
2019-12-07 20:00:00 18.9 13 Norte 27 Nordeste 0 -- -- 74
2019-12-07 19:00:00 19.4 14 Nordeste 25 Nordeste 0 -- -- 70
2019-12-07 18:00:00 19.8 19 Nordeste 28 Nordeste 0 -- -- 65
2019-12-07 17:00:00 20.4 20 Nordeste 31 Nordeste 0 -- -- 66
2019-12-07 16:00:00 21.3 19 Nordeste 38 Nordeste 0 -- -- 60
2019-12-07 15:00:00 21.7 24 Nordeste 36 Nordeste 0 -- -- 58
2019-12-07 14:00:00 21.7 23 Nordeste 36 Nordeste 0 -- -- 54
2019-12-07 13:00:00 21.7 21 Nordeste 34 Nordeste 0 -- -- 54
2019-12-07 12:00:00 21.4 24 Nordeste 39 Norte 0 -- -- 55
2019-12-07 11:00:00 20.9 17 Nordeste 26 Norte 0 -- -- 62
2019-12-07 10:00:00 19.4 12 Nordeste 22 Nordeste 0 -- -- 72
2019-12-07 09:00:00 15.5 8 Norte 11 Nordeste 0 -- -- 83
2019-12-07 08:00:00 12.7 8 Norte 11 Norte 0 -- -- 87
2019-12-07 07:00:00 13.5 6 Norte 10 Norte 0 -- -- 85
2019-12-07 06:00:00 13.6 8 Nordeste 12 Nordeste 0 -- -- 85
2019-12-07 05:00:00 13.6 9 Nordeste 12 Norte 0 -- -- 84
2019-12-07 04:00:00 14.1 4 Norte 9 Norte 0 -- -- 84
2019-12-07 03:00:00 13.6 5 Norte 9 Norte 0 -- -- 85
2019-12-07 02:00:00 13.8 6 Norte 9 Norte 0 -- -- 85
2019-12-07 01:00:00 14 6 Nordeste 12 Nordeste 0 -- -- 84
2019-12-07 00:00:00 15 7 Nordeste 12 Nordeste 0 -- -- 82
2019-12-06 23:00:00 16.1 7 Nordeste 16 Nordeste 0 -- -- 78
2019-12-06 22:00:00 15.9 11 Nordeste 19 Norte 0 -- -- 78
2019-12-06 21:00:00 16.6 8 Nordeste 14 Norte 0 -- -- 76
2019-12-06 20:00:00 17.4 9 Norte 19 Nordeste 0 -- -- 72
2019-12-06 19:00:00 18 10 Norte 23 Norte 0 -- -- 70
2019-12-06 18:00:00 18.4 14 Norte 31 Norte 0 -- -- 71
2019-12-06 17:00:00 18.8 18 Norte 42 Norte 0 -- -- 61
2019-12-06 16:00:00 20.2 21 Norte 41 Norte 0 -- -- 53
2019-12-06 15:00:00 20.6 22 Norte 44 Norte 0 -- -- 57
2019-12-06 14:00:00 21.1 23 Norte 42 Norte 0 -- -- 58
2019-12-06 13:00:00 20.4 19 Norte 35 Norte 0 -- -- 60
2019-12-06 12:00:00 21 12 Norte 36 Norte 0 -- -- 60
2019-12-06 11:00:00 20.5 18 Norte 35 Norte 0 -- -- 61
2019-12-06 10:00:00 19.1 17 Nordeste 24 Nordeste 0 -- -- 65
2019-12-06 09:00:00 17.7 9 Nordeste 17 Norte 0 -- -- 76
2019-12-06 08:00:00 15.5 4 Nordeste 12 Nordeste 0 -- -- 84
2019-12-06 07:00:00 15.5 3 Nordeste 9 Norte 0 -- -- 83
2019-12-06 06:00:00 15.2 5 Nordeste 9 Nordeste 0 -- -- 85
2019-12-06 05:00:00 15.6 6 Nordeste 15 Norte 0 -- -- 83
2019-12-06 04:00:00 16.2 9 Norte 21 Noroeste 0 -- -- 80
2019-12-06 03:00:00 16.8 13 Norte 31 Norte 0 -- -- 78
2019-12-06 02:00:00 16.9 10 Norte 23 Norte 0 -- -- 73
2019-12-06 01:00:00 17 9 Norte 18 Norte 0 -- -- 71
2019-12-06 00:00:00 16.7 8 Noroeste 25 Noroeste 0 -- -- 73
2019-12-05 23:00:00 17.2 9 Noroeste 21 Noroeste 0 -- -- 69
2019-12-05 22:00:00 17 9 Noroeste 20 Noroeste 0 -- -- 69
2019-12-05 21:00:00 17 7 Norte 26 Norte 0 -- -- 64
2019-12-05 20:00:00 17.6 14 Norte 30 Noroeste 0 -- -- 68
2019-12-05 19:00:00 17.6 19 Norte 46 Norte 0 -- -- 70
2019-12-05 18:00:00 17.9 12 Norte 27 Norte 0 -- -- 65
2019-12-05 17:00:00 17.5 18 Norte 39 Norte 0 -- -- 69
2019-12-05 16:00:00 19.1 21 Norte 44 Noroeste 0 -- -- 61
2019-12-05 15:00:00 20.2 18 Norte 62 Noroeste 0 -- -- 58
2019-12-05 14:00:00 20.1 27 Norte 48 Norte 0 -- -- 55
2019-12-05 13:00:00 19.3 27 Norte 50 Norte 0 -- -- 57
2019-12-05 12:00:00 20 23 Norte 46 Norte 0 -- -- 56
2019-12-05 11:00:00 19 18 Norte 47 Norte 0 -- -- 71
2019-12-05 10:00:00 17.6 8 Norte 36 Oeste 0.2 -- -- 72
2019-12-05 09:00:00 18.6 10 Noroeste 27 Oeste 0 -- -- 70
2019-12-05 08:00:00 17.3 16 Norte 42 Noroeste 0 -- -- 70
2019-12-05 07:00:00 17.2 10 Norte 45 Norte 0 -- -- 67
2019-12-05 06:00:00 17.3 29 Norte 49 Noroeste 0 -- -- 67
2019-12-05 05:00:00 17.6 24 Norte 40 Norte 0 -- -- 61
2019-12-05 04:00:00 17.1 19 Noroeste 31 Noroeste 0 -- -- 73
2019-12-05 03:00:00 16.5 19 Norte 36 Norte 0.2 -- -- 81
2019-12-05 02:00:00 16.8 17 Norte 40 Norte 3.6 -- -- 85
2019-12-05 01:00:00 19.5 17 Oeste 41 Oeste 0 -- -- 71
2019-12-05 00:00:00 19.1 6 Sudoeste 21 Oeste 0 -- -- 69
2019-12-04 23:00:00 19.1 9 Sudoeste 18 Sudoeste 0 -- -- 71
2019-12-04 22:00:00 18.5 2 Este 15 Norte 0 -- -- 73
2019-12-04 21:00:00 19.1 6 Norte 16 Norte 0 -- -- 67
2019-12-04 20:00:00 19.3 6 Norte 22 Norte 0 -- -- 66
2019-12-04 19:00:00 19.1 13 Norte 29 Norte 0 -- -- 72
2019-12-04 18:00:00 19.4 15 Norte 39 Norte 0 -- -- 69
2019-12-04 17:00:00 20.2 20 Norte 38 Norte 0 -- -- 58
2019-12-04 16:00:00 20.7 15 Norte 33 Noroeste 0 -- -- 58
2019-12-04 15:00:00 21.7 18 Norte 31 Norte 0 -- -- 49
2019-12-04 14:00:00 21.8 12 Noroeste 35 Oeste 0 -- -- 50
2019-12-04 13:00:00 21.6 17 Norte 31 Noroeste 0 -- -- 48
2019-12-04 12:00:00 21.6 15 Norte 33 Norte 0 -- -- 52
2019-12-04 11:00:00 19.2 6 Norte 15 Norte 0 -- -- 64
2019-12-04 10:00:00 17.1 12 Norte 25 Norte 0.2 -- -- 80
2019-12-04 09:00:00 16.4 8 Norte 12 Norte 0 -- -- 74
2019-12-04 08:00:00 13.7 9 Norte 13 Norte 0 -- -- 83
2019-12-04 07:00:00 13.5 7 Norte 11 Norte 0 -- -- 85
2019-12-04 06:00:00 14.1 6 Nordeste 11 Norte 0 -- -- 85
2019-12-04 05:00:00 14.9 6 Nordeste 12 Nordeste 0 -- -- 84
2019-12-04 04:00:00 15.6 8 Nordeste 17 Norte 0 -- -- 83
2019-12-04 03:00:00 17.4 9 Norte 18 Norte 0 -- -- 76
2019-12-04 02:00:00 17 5 Norte 13 Norte 0 -- -- 79
2019-12-04 01:00:00 16.5 5 Nordeste 10 Nordeste 0 -- -- 76
2019-12-04 00:00:00 16.4 4 Norte 6 Norte 0 -- -- 76
2019-12-03 23:00:00 16.5 5 Nordeste 10 Nordeste 0 -- -- 76
2019-12-03 22:00:00 17.3 3 Norte 12 Nordeste 0 -- -- 73
2019-12-03 21:00:00 17.6 8 Nordeste 15 Norte 0 -- -- 70
2019-12-03 20:00:00 18.2 5 Norte 14 Norte 0 -- -- 67
2019-12-03 19:00:00 18.7 6 Nordeste 19 Norte 0 -- -- 65
2019-12-03 18:00:00 19.5 13 Norte 27 Norte 0 -- -- 61
2019-12-03 17:00:00 20 15 Norte 34 Norte 0 -- -- 56
2019-12-03 16:00:00 20.1 14 Norte 39 Norte 0 -- -- 58
2019-12-03 15:00:00 21.4 19 Norte 44 Norte 0 -- -- 51
2019-12-03 14:00:00 21.9 18 Norte 42 Norte 0 -- -- 48
2019-12-03 13:00:00 21.3 20 Norte 44 Norte 0 -- -- 46
2019-12-03 12:00:00 21.4 17 Norte 35 Norte 0 -- -- 47
2019-12-03 11:00:00 20.7 17 Norte 31 Norte 0 -- -- 50
2019-12-03 10:00:00 19.8 13 Norte 25 Norte 0 -- -- 59
2019-12-03 09:00:00 16.7 10 Norte 30 Norte 0 -- -- 74
2019-12-03 08:00:00 17.6 8 Norte 19 Norte 0 -- -- 66
2019-12-03 07:00:00 17.7 9 Norte 22 Norte 0 -- -- 62
2019-12-03 06:00:00 17.6 11 Norte 22 Norte 0 -- -- 67
2019-12-03 05:00:00 16.5 8 Nordeste 22 Norte 0.2 -- -- 80
2019-12-03 04:00:00 16.5 3 Nordeste 19 Norte 0 -- -- 74
2019-12-03 03:00:00 17.7 7 Norte 16 Norte 0 -- -- 67
2019-12-03 02:00:00 17.7 11 Norte 24 Norte 0 -- -- 68
2019-12-03 01:00:00 17.3 10 Noroeste 24 Noroeste 0 -- -- 73
2019-12-03 00:00:00 16.6 12 Norte 50 Norte 0.2 -- -- 76
2019-12-02 23:00:00 16.4 3 Nordeste 27 Norte 0 -- -- 81
2019-12-02 22:00:00 17.8 10 Norte 21 Noroeste 0 -- -- 71
2019-12-02 21:00:00 17.5 3 Este 14 Noroeste 0 -- -- 79
2019-12-02 20:00:00 16.5 2 Este 30 Norte 0.4 -- -- 87
2019-12-02 19:00:00 16.9 7 Nordeste 39 Norte 0.2 -- -- 87
2019-12-02 18:00:00 18.3 15 Norte 37 Noroeste 0 -- -- 76
2019-12-02 17:00:00 19.6 24 Norte 41 Norte 0 -- -- 65
2019-12-02 16:00:00 19.5 22 Norte 48 Norte 0 -- -- 66
2019-12-02 15:00:00 20.8 21 Norte 46 Norte 0 -- -- 61
2019-12-02 14:00:00 21.1 24 Norte 62 Noroeste 0 -- -- 57
2019-12-02 13:00:00 22 15 Norte 41 Norte 0 -- -- 54
2019-12-02 12:00:00 21.9 24 Norte 44 Norte 0 -- -- 49
2019-12-02 11:00:00 21.7 23 Norte 44 Norte 0 -- -- 49
2019-12-02 10:00:00 21.2 19 Norte 40 Norte 0 -- -- 52
2019-12-02 09:00:00 20.6 13 Norte 30 Noroeste 0 -- -- 53
2019-12-02 08:00:00 17.4 3 Norte 11 Sudeste 0 -- -- 73
2019-12-02 07:00:00 16.8 4 Nordeste 15 Norte 0 -- -- 79
2019-12-02 06:00:00 18 8 Norte 15 Norte 0 -- -- 78
2019-12-02 05:00:00 17 5 Nordeste 8 Nordeste 0 -- -- 81
2019-12-02 04:00:00 17.2 2 Nordeste 7 Noroeste 0 -- -- 82
2019-12-02 03:00:00 17.7 2 Noroeste 12 Norte 0 -- -- 81
2019-12-02 02:00:00 17.8 2 Norte 10 Norte 0 -- -- 78
2019-12-02 01:00:00 17.4 4 Nordeste 7 Nordeste 0 -- -- 78
2019-12-02 00:00:00 17 0 Calma 8 Nordeste 0 -- -- 77
2019-12-01 23:00:00 17.8 4 Norte 10 Norte 0 -- -- 73
2019-12-01 22:00:00 17.8 5 Nordeste 10 Nordeste 0 -- -- 74
2019-12-01 21:00:00 19.2 6 Norte 10 Norte 0 -- -- 69
2019-12-01 20:00:00 19.8 8 Nordeste 19 Nordeste 0 -- -- 68
2019-12-01 19:00:00 20.2 11 Nordeste 28 Nordeste 0 -- -- 66
2019-12-01 18:00:00 20.7 16 Nordeste 27 Nordeste 0 -- -- 67
2019-12-01 17:00:00 21.1 19 Nordeste 33 Nordeste 0 -- -- 63
2019-12-01 16:00:00 21.6 18 Nordeste 36 Este 0 -- -- 64
2019-12-01 15:00:00 21 21 Este 36 Este 0 -- -- 68
2019-12-01 14:00:00 21.1 20 Este 39 Este 0 -- -- 73
2019-12-01 13:00:00 21.5 16 Este 27 Este 0 -- -- 71
2019-12-01 12:00:00 22.3 13 Norte 30 Nordeste 0 -- -- 61
2019-12-01 11:00:00 21.4 15 Nordeste 30 Nordeste 0 -- -- 66
2019-12-01 10:00:00 20.5 14 Nordeste 26 Nordeste 0 -- -- 69
2019-12-01 09:00:00 19.5 19 Nordeste 28 Nordeste 0 -- -- 72
2019-12-01 08:00:00 18.6 13 Nordeste 21 Nordeste 0 -- -- 77
2019-12-01 07:00:00 18.1 9 Norte 20 Nordeste 0 -- -- 80
2019-12-01 06:00:00 18.4 11 Norte 22 Nordeste 0 -- -- 79
2019-12-01 05:00:00 18.5 13 Nordeste 23 Norte 0 -- -- 80
2019-12-01 04:00:00 18.6 13 Norte 28 Norte 0 -- -- 80
2019-12-01 03:00:00 18.8 15 Norte 29 Norte 0 -- -- 79
2019-12-01 02:00:00 19 21 Norte 31 Nordeste 0 -- -- 79
2019-12-01 01:00:00 19.2 17 Norte 32 Norte 0 -- -- 79
2019-12-01 00:00:00 19.4 19 Norte 35 Norte 0 -- -- 79
2019-11-30 23:00:00 19.9 18 Norte 34 Norte 0 -- -- 72
2019-11-30 22:00:00 20.1 18 Norte 31 Norte 0 -- -- 68
2019-11-30 21:00:00 20.5 19 Norte 32 Norte 0 -- -- 71
2019-11-30 20:00:00 20.9 14 Norte 27 Norte 0 -- -- 69
2019-11-30 19:00:00 21.3 15 Norte 32 Norte 0 -- -- 69
2019-11-30 18:00:00 23.1 12 Norte 22 Norte 0 -- -- 60
2019-11-30 17:00:00 25.1 14 Norte 24 Norte 0 -- -- 50
2019-11-30 16:00:00 24.4 12 Este 22 Este 0 -- -- 55
2019-11-30 15:00:00 25 15 Este 24 Este 0 -- -- 51
2019-11-30 14:00:00 24.6 14 Este 28 Este 0 -- -- 54
2019-11-30 13:00:00 24.8 13 Este 27 Este 0 -- -- 49
2019-11-30 12:00:00 24.7 14 Este 29 Este 0 -- -- 50
2019-11-30 11:00:00 25.1 13 Este 24 Este 0 -- -- 43
2019-11-30 10:00:00 25.5 8 Norte 22 Norte 0 -- -- 36
2019-11-30 09:00:00 22.3 12 Norte 23 Este 0 -- -- 49
2019-11-30 08:00:00 21 11 Norte 25 Nordeste 0 -- -- 54
2019-11-30 07:00:00 20 14 Norte 32 Norte 0 -- -- 57
2019-11-30 06:00:00 20 17 Norte 28 Norte 0 -- -- 64
2019-11-30 05:00:00 20.1 13 Norte 28 Norte 0 -- -- 61
2019-11-30 04:00:00 20.2 18 Norte 31 Norte 0 -- -- 60
2019-11-30 03:00:00 20.3 13 Nordeste 27 Norte 0 -- -- 59
2019-11-30 02:00:00 20.6 13 Norte 30 Norte 0 -- -- 62
2019-11-30 01:00:00 20.7 19 Norte 34 Norte 0 -- -- 67
2019-11-30 00:00:00 21.6 15 Norte 31 Norte 0 -- -- 54
2019-11-29 23:00:00 22.2 17 Norte 33 Norte 0 -- -- 49
2019-11-29 22:00:00 22.5 17 Norte 32 Norte 0 -- -- 46
2019-11-29 21:00:00 22.7 21 Norte 35 Norte 0 -- -- 45
2019-11-29 20:00:00 23.4 10 Norte 26 Norte 0 -- -- 48
2019-11-29 19:00:00 25.3 10 Norte 18 Norte 0 -- -- 40
2019-11-29 18:00:00 23.1 5 Este 11 Este 0 -- -- 65
2019-11-29 17:00:00 26.2 4 Este 13 Este 0 -- -- 45
2019-11-29 16:00:00 25.6 8 Este 17 Sudeste 0 -- -- 46
2019-11-29 15:00:00 27.2 9 Este 19 Este 0 -- -- 27
2019-11-29 14:00:00 25.9 10 Este 22 Nordeste 0 -- -- 34
2019-11-29 13:00:00 25.5 10 Este 23 Nordeste 0 -- -- 36
2019-11-29 12:00:00 25.2 12 Este 25 Este 0 -- -- 37
2019-11-29 11:00:00 25.1 11 Nordeste 23 Norte 0 -- -- 43
2019-11-29 10:00:00 23.6 9 Norte 18 Norte 0 -- -- 50
2019-11-29 09:00:00 22.1 9 Nordeste 18 Nordeste 0 -- -- 56
2019-11-29 08:00:00 20.5 9 Norte 25 Norte 0 -- -- 60
2019-11-29 07:00:00 19.9 12 Norte 30 Norte 0 -- -- 64
2019-11-29 06:00:00 19.7 18 Norte 34 Norte 0 -- -- 66
2019-11-29 05:00:00 19.7 22 Norte 36 Norte 0 -- -- 69
2019-11-29 04:00:00 19.5 18 Norte 36 Norte 0 -- -- 70
2019-11-29 03:00:00 19.6 19 Norte 29 Norte 0 -- -- 72
2019-11-29 02:00:00 20.4 15 Norte 33 Norte 0 -- -- 59
2019-11-29 01:00:00 20.5 19 Norte 32 Norte 0 -- -- 60
2019-11-29 00:00:00 20.4 23 Norte 33 Norte 0 -- -- 64
2019-11-28 23:00:00 20.1 17 Norte 32 Norte 0 -- -- 71
2019-11-28 22:00:00 20.6 20 Norte 36 Norte 0 -- -- 65
2019-11-28 21:00:00 20.6 19 Norte 32 Nordeste 0 -- -- 68
2019-11-28 20:00:00 20.9 20 Norte 33 Norte 0 -- -- 63
2019-11-28 19:00:00 20.9 18 Norte 30 Norte 0 -- -- 66
2019-11-28 18:00:00 21.2 18 Norte 28 Norte 0 -- -- 64
2019-11-28 17:00:00 22.9 14 Norte 24 Norte 0 -- -- 56
2019-11-28 16:00:00 24.1 18 Norte 26 Nordeste 0 -- -- 50
2019-11-28 15:00:00 23.3 10 Este 26 Este 0 -- -- 58
2019-11-28 14:00:00 22.7 14 Este 25 Este 0 -- -- 62
2019-11-28 13:00:00 23.2 10 Este 23 Este 0 -- -- 61
2019-11-28 12:00:00 23 10 Este 24 Norte 0 -- -- 58
2019-11-28 11:00:00 22 15 Norte 26 Norte 0 -- -- 62
2019-11-28 10:00:00 20.7 15 Norte 30 Nordeste 0 -- -- 71
2019-11-28 09:00:00 19.6 18 Norte 29 Norte 0 -- -- 77
2019-11-28 08:00:00 18.1 13 Norte 21 Norte 0 -- -- 82
2019-11-28 07:00:00 18 10 Norte 22 Norte 0 -- -- 82
2019-11-28 06:00:00 17.9 13 Nordeste 20 Nordeste 0 -- -- 82
2019-11-28 05:00:00 17.9 12 Nordeste 17 Nordeste 0 -- -- 82
2019-11-28 04:00:00 17.8 8 Norte 15 Norte 0 -- -- 83
2019-11-28 03:00:00 18.3 11 Nordeste 28 Nordeste 0 -- -- 81
2019-11-28 02:00:00 18.5 20 Norte 33 Norte 0 -- -- 80
2019-11-28 01:00:00 18.6 18 Norte 27 Norte 0 -- -- 80
2019-11-28 00:00:00 18.6 15 Norte 26 Norte 0 -- -- 81
2019-11-27 23:00:00 18.8 15 Norte 29 Norte 0 -- -- 81
2019-11-27 22:00:00 19 15 Norte 27 Norte 0 -- -- 80
2019-11-27 21:00:00 19.2 17 Norte 28 Nordeste 0 -- -- 80
2019-11-27 20:00:00 19.5 18 Norte 29 Norte 0 -- -- 78
2019-11-27 19:00:00 19.8 15 Norte 26 Norte 0 -- -- 73
2019-11-27 18:00:00 20.5 17 Nordeste 27 Norte 0 -- -- 71
2019-11-27 17:00:00 21.7 18 Nordeste 26 Norte 0 -- -- 67
2019-11-27 16:00:00 22.6 19 Nordeste 29 Nordeste 0 -- -- 61
2019-11-27 15:00:00 21.8 17 Este 32 Este 0 -- -- 69
2019-11-27 14:00:00 21.7 20 Este 31 Este 0 -- -- 69
2019-11-27 13:00:00 23.7 16 Norte 28 Norte 0 -- -- 53
2019-11-27 05:00:00 -- -- -- -- -- -- -- -- --
2019-11-27 04:00:00 -- -- -- -- -- -- -- -- --
2019-11-27 03:00:00 18.5 12 Nordeste 21 Nordeste 0 -- -- 81
2019-11-27 02:00:00 18.7 14 Nordeste 22 Norte 0 -- -- 81
2019-11-27 01:00:00 18.7 14 Norte 19 Norte 0 -- -- 81
2019-11-27 00:00:00 18.9 13 Norte 20 Norte 0 -- -- 81
2019-11-26 23:00:00 19.1 10 Norte 19 Norte 0 -- -- 80
2019-11-26 22:00:00 19.1 9 Nordeste 24 Norte 0 -- -- 81
2019-11-26 21:00:00 19.5 11 Norte 19 Norte 0 -- -- 80
2019-11-26 20:00:00 19.7 5 Nordeste 22 Norte 0 -- -- 79
2019-11-26 19:00:00 20.2 12 Norte 21 Noroeste 0 -- -- 76
2019-11-26 18:00:00 20.9 12 Norte 29 Nordeste 0 -- -- 72
2019-11-26 17:00:00 21.8 20 Nordeste 29 Nordeste 0 -- -- 66
2019-11-26 16:00:00 23.9 15 Nordeste 27 Este 0 -- -- 53
2019-11-26 15:00:00 22.4 13 Este 25 Este 0 -- -- 70
2019-11-26 14:00:00 23.6 9 Nordeste 26 Norte 0 -- -- 62
2019-11-26 13:00:00 23.4 14 Nordeste 23 Norte 0 -- -- 59
2019-11-26 12:00:00 21.3 13 Este 24 Este 0 -- -- 71
2019-11-26 11:00:00 22.2 5 Sudeste 26 Norte 0 -- -- 66
2019-11-26 10:00:00 20.3 19 Nordeste 28 Nordeste 0 -- -- 72
2019-11-26 09:00:00 19.6 12 Nordeste 18 Nordeste 0 -- -- 76
2019-11-26 08:00:00 18.3 9 Norte 22 Nordeste 0 -- -- 80
2019-11-26 07:00:00 18.1 12 Norte 21 Nordeste 0 -- -- 81
2019-11-26 06:00:00 18.3 11 Nordeste 20 Norte 0 -- -- 81
2019-11-26 05:00:00 18.3 11 Nordeste 18 Nordeste 0 -- -- 79
2019-11-26 04:00:00 18.1 9 Nordeste 16 Norte 0 -- -- 81
2019-11-26 03:00:00 18.4 12 Nordeste 19 Nordeste 0 -- -- 79
2019-11-26 02:00:00 18.7 11 Nordeste 18 Nordeste 0 -- -- 79
2019-11-26 01:00:00 18.9 8 Norte 19 Nordeste 0 -- -- 78
2019-11-26 00:00:00 19 10 Nordeste 19 Nordeste 0 -- -- 77
2019-11-25 23:00:00 19.1 12 Nordeste 23 Norte 0 -- -- 74
2019-11-25 22:00:00 19.1 13 Nordeste 25 Nordeste 0 -- -- 74
2019-11-25 21:00:00 19.5 13 Nordeste 23 Nordeste 0 -- -- 75
2019-11-25 20:00:00 19.8 12 Nordeste 26 Norte 0 -- -- 74
2019-11-25 19:00:00 19.8 15 Nordeste 27 Nordeste 0 -- -- 73
2019-11-25 18:00:00 20 18 Nordeste 28 Nordeste 0 -- -- 72
2019-11-25 17:00:00 20.7 14 Nordeste 22 Nordeste 0 -- -- 69
2019-11-25 16:00:00 21.1 8 Este 25 Nordeste 0 -- -- 68
2019-11-25 15:00:00 21.8 17 Nordeste 27 Nordeste 0 -- -- 64
2019-11-25 14:00:00 22.3 16 Nordeste 29 Nordeste 0 -- -- 60
2019-11-25 13:00:00 21.3 17 Nordeste 33 Nordeste 0 -- -- 65
2019-11-25 12:00:00 20.9 19 Nordeste 32 Nordeste 0 -- -- 67
2019-11-25 11:00:00 20.5 20 Nordeste 36 Nordeste 0 -- -- 67
2019-11-25 10:00:00 20 20 Nordeste 32 Nordeste 0 -- -- 68
2019-11-25 09:00:00 19.3 13 Nordeste 22 Nordeste 0 -- -- 71
2019-11-25 08:00:00 18.7 7 Norte 14 Norte 0 -- -- 71
2019-11-25 07:00:00 17.9 8 Nordeste 14 Norte 0 -- -- 74
2019-11-25 06:00:00 17.9 6 Norte 18 Norte 0 -- -- 73
2019-11-25 05:00:00 17.8 6 Norte 18 Norte 0 -- -- 73
2019-11-25 04:00:00 17.3 3 Este 11 Nordeste 0 -- -- 76
2019-11-25 03:00:00 17.2 6 Nordeste 14 Nordeste 0 -- -- 76
2019-11-25 02:00:00 17 5 Nordeste 12 Norte 0 -- -- 75
2019-11-25 01:00:00 17.6 7 Nordeste 18 Norte 0 -- -- 72
2019-11-25 00:00:00 18.5 8 Norte 19 Norte 0 -- -- 67
2019-11-24 23:00:00 19.1 10 Norte 27 Norte 0 -- -- 67
2019-11-24 22:00:00 19.7 15 Nordeste 28 Nordeste 0 -- -- 64
2019-11-24 21:00:00 19.9 8 Nordeste 19 Nordeste 0 -- -- 63
2019-11-24 20:00:00 19.7 10 Norte 40 Norte 0 -- -- 64
2019-11-24 19:00:00 20.1 18 Norte 31 Norte 0 -- -- 63
2019-11-24 18:00:00 20.8 18 Norte 30 Norte 0 -- -- 60
2019-11-24 17:00:00 22.1 16 Norte 26 Norte 0 -- -- 57
2019-11-24 16:00:00 21.2 17 Este 36 Este 0 -- -- 66
2019-11-24 15:00:00 21.6 17 Este 35 Este 0 -- -- 65
2019-11-24 14:00:00 22.6 13 Nordeste 26 Nordeste 0 -- -- 61
2019-11-24 13:00:00 23.1 11 Nordeste 29 Norte 0 -- -- 56
2019-11-24 12:00:00 22.9 13 Nordeste 29 Nordeste 0 -- -- 54
2019-11-24 11:00:00 22.2 19 Nordeste 29 Nordeste 0 -- -- 58
2019-11-24 10:00:00 21.5 15 Norte 27 Norte 0 -- -- 63
2019-11-24 09:00:00 20.4 13 Norte 25 Norte 0 -- -- 69
2019-11-24 08:00:00 19.1 11 Norte 26 Norte 0 -- -- 76
2019-11-24 07:00:00 19.2 8 Norte 32 Norte 0 -- -- 73
2019-11-24 06:00:00 19 9 Norte 17 Norte 0 -- -- 78
2019-11-24 05:00:00 19.2 11 Norte 22 Norte 0 -- -- 78
2019-11-24 04:00:00 18.8 8 Nordeste 18 Norte 0 -- -- 79
2019-11-24 03:00:00 18.6 8 Nordeste 15 Norte 0 -- -- 83
2019-11-24 02:00:00 18.2 8 Nordeste 12 Nordeste 0 -- -- 83
2019-11-24 01:00:00 18.4 7 Norte 10 Norte 0 -- -- 84
2019-11-24 00:00:00 18.4 6 Nordeste 18 Norte 0 -- -- 83
2019-11-23 23:00:00 19.4 9 Norte 18 Norte 0 -- -- 80
2019-11-23 22:00:00 19.3 6 Nordeste 13 Norte 0 -- -- 80
2019-11-23 21:00:00 20.1 9 Nordeste 23 Norte 0 -- -- 77
2019-11-23 20:00:00 20.4 12 Norte 31 Norte 0 -- -- 75
2019-11-23 19:00:00 21 16 Norte 31 Norte 0 -- -- 70
2019-11-23 18:00:00 21.8 16 Norte 32 Norte 0 -- -- 69
2019-11-23 17:00:00 22.8 22 Nordeste 35 Norte 0 -- -- 69
2019-11-23 16:00:00 23.7 17 Norte 36 Norte 0 -- -- 67
2019-11-23 15:00:00 24.2 18 Norte 42 Norte 0 -- -- 68
2019-11-23 14:00:00 24.5 18 Norte 34 Norte 0 -- -- 65
2019-11-23 13:00:00 25.3 16 Norte 38 Norte 0 -- -- 59
2019-11-23 12:00:00 24.1 19 Norte 35 Norte 0 -- -- 63
2019-11-23 11:00:00 23.3 17 Norte 33 Norte 0 -- -- 69
2019-11-23 10:00:00 22.1 17 Norte 33 Norte 0 -- -- 79
2019-11-23 09:00:00 21.7 14 Norte 27 Norte 0 -- -- 78
2019-11-23 08:00:00 20.7 16 Norte 28 Noroeste 0 -- -- 82
2019-11-23 07:00:00 20.7 11 Noroeste 38 Noroeste 0 -- -- 82
2019-11-23 06:00:00 20.7 9 Norte 20 Norte 0 -- -- 82
2019-11-23 05:00:00 20.5 11 Norte 24 Norte 0 -- -- 79
2019-11-23 04:00:00 20.4 9 Norte 18 Norte 0 -- -- 80
2019-11-23 03:00:00 20 0 Calma 5 Sudoeste 0 -- -- 83
2019-11-23 02:00:00 19.8 3 Norte 7 Noroeste 0 -- -- 84
2019-11-23 01:00:00 19.9 3 Nordeste 16 Norte 0 -- -- 83
2019-11-23 00:00:00 19.9 5 Norte 20 Norte 0 -- -- 83
2019-11-22 23:00:00 19.8 4 Norte 9 Norte 0 -- -- 82
2019-11-22 22:00:00 20.3 4 Norte 14 Oeste 0 -- -- 77
2019-11-22 21:00:00 20.2 3 Norte 17 Noroeste 0 -- -- 76
2019-11-22 20:00:00 20.1 6 Norte 21 Norte 0 -- -- 74
2019-11-22 19:00:00 20.7 4 Sur 19 Noroeste 0 -- -- 72
2019-11-22 18:00:00 21.2 9 Noroeste 27 Norte 0 -- -- 70
2019-11-22 17:00:00 21.5 4 Sudeste 15 Sur 0 -- -- 77
2019-11-22 16:00:00 23.4 8 Norte 27 Noroeste 0 -- -- 65
2019-11-22 15:00:00 24.4 9 Norte 24 Oeste 0 -- -- 58
2019-11-22 14:00:00 24.6 9 Norte 35 Norte 0 -- -- 58
2019-11-22 13:00:00 23.9 18 Norte 35 Norte 0 -- -- 62
2019-11-22 12:00:00 23.7 15 Norte 31 Noroeste 0 -- -- 63
2019-11-22 11:00:00 23 16 Norte 33 Norte 0 -- -- 67
2019-11-22 10:00:00 20.6 12 Norte 32 Nordeste 0.2 -- -- 85
2019-11-22 09:00:00 20.6 8 Oeste 30 Sudoeste 0 -- -- 85
2019-11-22 08:00:00 20.1 13 Oeste 27 Sudoeste 0 -- -- 84
2019-11-22 07:00:00 20.1 13 Sudoeste 22 Sudoeste 0 -- -- 90
2019-11-22 06:00:00 19.7 14 Sudoeste 22 Sudoeste 0 -- -- 88
2019-11-22 05:00:00 19.9 17 Sudoeste 22 Sudoeste 0 -- -- 87
2019-11-22 04:00:00 19.3 10 Sudoeste 23 Sudoeste 0 -- -- 86
2019-11-22 03:00:00 19.3 12 Oeste 18 Sudoeste 0 -- -- 85
2019-11-22 02:00:00 19.4 10 Sudoeste 18 Oeste 0 -- -- 85
2019-11-22 01:00:00 19.4 12 Oeste 21 Sudoeste 0 -- -- 86
2019-11-22 00:00:00 19.5 15 Sudoeste 21 Sudoeste 0 -- -- 86
2019-11-21 23:00:00 19.6 9 Sudoeste 13 Sudoeste 0 -- -- 85
2019-11-21 22:00:00 19.6 7 Oeste 16 Oeste 0 -- -- 79
2019-11-21 21:00:00 19.9 12 Oeste 17 Oeste 0 -- -- 77
2019-11-21 20:00:00 20.1 10 Sudoeste 16 Sudoeste 0 -- -- 77
2019-11-21 19:00:00 20.4 12 Sudoeste 23 Sudoeste 0 -- -- 75
2019-11-21 18:00:00 21 14 Sudoeste 19 Sudoeste 0 -- -- 72
2019-11-21 17:00:00 21.8 9 Sudoeste 25 Sudoeste 0 -- -- 73
2019-11-21 16:00:00 22 18 Sudoeste 30 Sudoeste 0 -- -- 75
2019-11-21 15:00:00 21.8 16 Sudoeste 27 Sudoeste 0 -- -- 76
2019-11-21 14:00:00 22.4 18 Sudoeste 24 Sudoeste 0 -- -- 75
2019-11-21 13:00:00 22.7 17 Sudoeste 24 Sudoeste 0 -- -- 73
2019-11-21 12:00:00 22.3 14 Sudoeste 19 Sudoeste 0 -- -- 74
2019-11-21 11:00:00 21.5 9 Sudoeste 14 Oeste 0 -- -- 80
2019-11-21 10:00:00 20 10 Sudoeste 18 Oeste 0 -- -- 85
2019-11-21 09:00:00 19.3 3 Sur 5 Sur 0 -- -- 89
2019-11-21 08:00:00 18.2 0 Calma 10 Nordeste 0 -- -- 92
2019-11-21 07:00:00 -- -- -- -- -- -- -- -- --
2019-11-21 06:00:00 -- -- -- -- -- -- -- -- --
2019-11-21 05:00:00 -- -- -- -- -- -- -- -- --
2019-11-21 04:00:00 -- -- -- -- -- -- -- -- --
2019-11-21 03:00:00 -- -- -- -- -- -- -- -- --
2019-11-21 02:00:00 -- -- -- -- -- -- -- -- --
2019-11-21 01:00:00 -- -- -- -- -- -- -- -- --
2019-11-21 00:00:00 -- -- -- -- -- -- -- -- --
2019-11-20 23:00:00 -- -- -- -- -- -- -- -- --
2019-11-20 22:00:00 -- -- -- -- -- -- -- -- --
2019-11-20 21:00:00 -- -- -- -- -- -- -- -- --
2019-11-20 20:00:00 -- -- -- -- -- -- -- -- --
2019-11-20 19:00:00 20.9 8 Sudoeste 15 Noroeste 0 -- -- 68
2019-11-20 18:00:00 21.4 6 Norte 22 Norte 0 -- -- 62
2019-11-20 17:00:00 22.7 8 Oeste 21 Sudoeste 0 -- -- 63
2019-11-20 16:00:00 23 10 Oeste 22 Oeste 0 -- -- 60
2019-11-20 15:00:00 23.2 14 Oeste 28 Oeste 0 -- -- 61
2019-11-20 14:00:00 22.9 8 Noroeste 22 Oeste 0 -- -- 61
2019-11-20 13:00:00 21.9 10 Noroeste 30 Sudoeste 0 -- -- 67
2019-11-20 12:00:00 21.4 17 Sudoeste 25 Sudoeste 0 -- -- 78
2019-11-20 11:00:00 21.1 11 Sudoeste 15 Sudoeste 0 -- -- 80
2019-11-20 10:00:00 20.2 3 Sudeste 8 Nordeste 0 -- -- 81
2019-11-20 09:00:00 17.8 6 Nordeste 10 Nordeste 0 -- -- 86
2019-11-20 08:00:00 15.6 6 Norte 10 Norte 0.2 -- -- 91
2019-11-20 07:00:00 15.9 5 Nordeste 9 Nordeste 0 -- -- 90
2019-11-20 06:00:00 15.7 5 Norte 10 Norte 0 -- -- 91
2019-11-20 05:00:00 16.6 3 Norte 8 Norte 0 -- -- 89
2019-11-20 04:00:00 16.5 5 Nordeste 11 Nordeste 0.2 -- -- 87
2019-11-20 03:00:00 17.5 6 Norte 12 Norte 0 -- -- 81
2019-11-20 02:00:00 17.1 7 Norte 13 Norte 0 -- -- 74
2019-11-20 01:00:00 17 7 Nordeste 12 Norte 0 -- -- 75
2019-11-20 00:00:00 18.5 3 Norte 8 Norte 0 -- -- 73
2019-11-19 23:00:00 18.1 6 Norte 8 Norte 0 -- -- 74
2019-11-19 22:00:00 18.9 5 Norte 9 Norte 0 -- -- 73
2019-11-19 21:00:00 19.1 4 Norte 8 Nordeste 0 -- -- 73
2019-11-19 20:00:00 19.7 4 Norte 11 Norte 0 -- -- 65
2019-11-19 19:00:00 20.3 7 Nordeste 17 Norte 0 -- -- 63
2019-11-19 18:00:00 21.1 10 Norte 28 Noroeste 0 -- -- 60
2019-11-19 17:00:00 22.4 6 Noroeste 30 Sudoeste 0 -- -- 57
2019-11-19 16:00:00 22.9 8 Sudoeste 28 Sudoeste 0 -- -- 62
2019-11-19 15:00:00 24.2 7 Norte 39 Nordeste 0 -- -- 46
2019-11-19 14:00:00 23.8 15 Norte 34 Norte 0 -- -- 45
2019-11-19 13:00:00 23.4 15 Norte 29 Norte 0 -- -- 49
2019-11-19 12:00:00 23.5 14 Norte 28 Norte 0 -- -- 50
2019-11-19 11:00:00 22.4 14 Norte 26 Nordeste 0 -- -- 60
2019-11-19 10:00:00 21.1 6 Norte 10 Norte 0 -- -- 67
2019-11-19 09:00:00 19.4 3 Norte 9 Nordeste 0 -- -- 79
2019-11-19 08:00:00 16.2 5 Norte 10 Nordeste 0 -- -- 86
2019-11-19 07:00:00 16 5 Norte 13 Nordeste 0 -- -- 86
2019-11-19 06:00:00 14.1 8 Norte 14 Norte 0 -- -- 82
2019-11-19 05:00:00 14.4 8 Norte 15 Nordeste 0 -- -- 82
2019-11-19 04:00:00 14.3 7 Norte 13 Norte 0 -- -- 81
2019-11-19 03:00:00 14.8 6 Nordeste 9 Norte 0 -- -- 79
2019-11-19 02:00:00 15 6 Norte 9 Norte 0 -- -- 77
2019-11-19 01:00:00 15.5 4 Norte 9 Norte 0 -- -- 78
2019-11-19 00:00:00 15.9 5 Nordeste 7 Nordeste 0 -- -- 78
2019-11-18 23:00:00 16.6 4 Norte 6 Norte 0 -- -- 77
2019-11-18 22:00:00 16.9 4 Nordeste 8 Nordeste 0 -- -- 76
2019-11-18 21:00:00 18.1 5 Norte 10 Nordeste 0 -- -- 74
2019-11-18 20:00:00 18.6 6 Norte 12 Norte 0 -- -- 71
2019-11-18 19:00:00 19.1 9 Nordeste 19 Nordeste 0 -- -- 68
2019-11-18 18:00:00 19.6 10 Nordeste 28 Nordeste 0 -- -- 68
2019-11-18 17:00:00 19.8 16 Este 35 Nordeste 0 -- -- 67
2019-11-18 16:00:00 19.7 18 Este 34 Nordeste 0 -- -- 68
2019-11-18 15:00:00 19.7 18 Este 36 Este 0 -- -- 67
2019-11-18 14:00:00 19.8 17 Este 31 Nordeste 0 -- -- 66
2019-11-18 13:00:00 20.6 18 Nordeste 33 Nordeste 0 -- -- 61
2019-11-18 12:00:00 20.1 18 Nordeste 32 Nordeste 0 -- -- 63
2019-11-18 11:00:00 19.9 18 Nordeste 31 Nordeste 0 -- -- 62
2019-11-18 10:00:00 19.3 14 Nordeste 25 Nordeste 0 -- -- 64
2019-11-18 09:00:00 18.5 11 Nordeste 17 Nordeste 0 -- -- 68
2019-11-18 08:00:00 15.7 6 Nordeste 14 Nordeste 0 -- -- 79
2019-11-18 07:00:00 16.6 9 Nordeste 19 Norte 0 -- -- 74
2019-11-18 06:00:00 16.7 10 Norte 18 Norte 0 -- -- 73
2019-11-18 05:00:00 16.7 12 Norte 20 Nordeste 0 -- -- 73
2019-11-18 04:00:00 16.8 13 Norte 21 Nordeste 0 -- -- 72
2019-11-18 03:00:00 17 14 Norte 28 Norte 0 -- -- 71
2019-11-18 02:00:00 16.8 12 Norte 22 Norte 0 -- -- 72
2019-11-18 01:00:00 16.8 11 Norte 23 Norte 0 -- -- 70
2019-11-18 00:00:00 16.8 14 Norte 27 Norte 0 -- -- 67
2019-11-17 23:00:00 16.9 16 Norte 28 Norte 0 -- -- 65
2019-11-17 22:00:00 17.2 15 Norte 27 Norte 0 -- -- 63
2019-11-17 21:00:00 17.4 15 Norte 28 Norte 0 -- -- 64
2019-11-17 20:00:00 17.7 19 Norte 30 Norte 0 -- -- 65
2019-11-17 19:00:00 17.9 16 Nordeste 26 Nordeste 0 -- -- 65
2019-11-17 18:00:00 18.4 17 Nordeste 29 Nordeste 0 -- -- 62
2019-11-17 17:00:00 19.2 21 Nordeste 34 Nordeste 0 -- -- 58
2019-11-17 16:00:00 19.5 20 Nordeste 47 Nordeste 0 -- -- 59
2019-11-17 15:00:00 19.7 22 Nordeste 35 Norte 0 -- -- 54
2019-11-17 14:00:00 20 23 Nordeste 40 Este 0 -- -- 54
2019-11-17 13:00:00 19.9 27 Nordeste 44 Nordeste 0 -- -- 51
2019-11-17 12:00:00 19.6 25 Nordeste 42 Nordeste 0 -- -- 58
2019-11-17 11:00:00 19.5 24 Nordeste 41 Nordeste 0 -- -- 59
2019-11-17 10:00:00 19.2 20 Nordeste 35 Nordeste 0 -- -- 62
2019-11-17 09:00:00 18.5 22 Nordeste 36 Nordeste 0 -- -- 64
2019-11-17 08:00:00 17.9 15 Nordeste 30 Nordeste 0 -- -- 58
2019-11-17 07:00:00 17.9 14 Nordeste 33 Nordeste 0 -- -- 65
2019-11-17 06:00:00 17.7 15 Nordeste 34 Nordeste 0 -- -- 60
2019-11-17 05:00:00 17.4 14 Nordeste 40 Norte 0 -- -- 69
2019-11-17 04:00:00 17.8 14 Nordeste 24 Norte 0 -- -- 61
2019-11-17 03:00:00 17.5 11 Norte 26 Nordeste 0 -- -- 60
2019-11-17 02:00:00 17.6 14 Nordeste 26 Norte 0 -- -- 64
2019-11-17 01:00:00 17.4 16 Nordeste 26 Norte 0 -- -- 63
2019-11-17 00:00:00 17.8 18 Nordeste 31 Nordeste 0 -- -- 61
2019-11-16 23:00:00 17.8 13 Nordeste 32 Nordeste 0 -- -- 61
2019-11-16 22:00:00 18 18 Nordeste 34 Nordeste 0 -- -- 65
2019-11-16 21:00:00 17.8 15 Nordeste 34 Nordeste 0 -- -- 66
2019-11-16 20:00:00 18 18 Nordeste 43 Nordeste 0 -- -- 66
2019-11-16 19:00:00 18.6 24 Nordeste 39 Nordeste 0 -- -- 63
2019-11-16 18:00:00 18.8 22 Nordeste 47 Nordeste 0 -- -- 61
2019-11-16 17:00:00 19.1 27 Nordeste 43 Nordeste 0 -- -- 63
2019-11-16 16:00:00 20.2 23 Nordeste 40 Nordeste 0 -- -- 57
2019-11-16 15:00:00 20.3 26 Nordeste 40 Nordeste 0 -- -- 59
2019-11-16 14:00:00 20.8 25 Nordeste 41 Nordeste 0 -- -- 54
2019-11-16 13:00:00 20.7 24 Nordeste 38 Nordeste 0 -- -- 52
2019-11-16 12:00:00 20.6 27 Nordeste 41 Norte 0 -- -- 48
2019-11-16 11:00:00 21 25 Nordeste 38 Nordeste 0 -- -- 46
2019-11-16 10:00:00 20.1 22 Norte 37 Nordeste 0 -- -- 51
2019-11-16 09:00:00 19.4 11 Norte 23 Norte 0 -- -- 54
2019-11-16 08:00:00 17.1 6 Nordeste 21 Norte 0 -- -- 68
2019-11-16 07:00:00 17.4 9 Norte 21 Norte 0 -- -- 65
2019-11-16 06:00:00 17.1 9 Norte 30 Norte 0 -- -- 64
2019-11-16 05:00:00 17.3 12 Norte 26 Norte 0 -- -- 63
2019-11-16 04:00:00 16.8 9 Norte 26 Norte 0 -- -- 67
2019-11-16 03:00:00 17.1 8 Norte 19 Norte 0 -- -- 65
2019-11-16 02:00:00 17.4 7 Norte 15 Norte 0 -- -- 63
2019-11-16 01:00:00 16.4 7 Nordeste 16 Norte 0 -- -- 71
2019-11-16 00:00:00 17.4 10 Norte 24 Norte 0 -- -- 66
2019-11-15 23:00:00 17.8 10 Norte 23 Nordeste 0 -- -- 63
2019-11-15 22:00:00 18 12 Norte 23 Norte 0 -- -- 60
2019-11-15 21:00:00 18.4 14 Norte 25 Norte 0 -- -- 59
2019-11-15 20:00:00 18.6 13 Norte 24 Norte 0 -- -- 59
2019-11-15 19:00:00 18.9 13 Nordeste 32 Nordeste 0 -- -- 57
2019-11-15 18:00:00 18.9 20 Nordeste 43 Nordeste 0 -- -- 66
2019-11-15 17:00:00 19.5 27 Nordeste 41 Norte 0 -- -- 60
2019-11-15 16:00:00 20.3 26 Nordeste 45 Nordeste 0 -- -- 58
2019-11-15 15:00:00 20.8 24 Nordeste 40 Nordeste 0 -- -- 55
2019-11-15 14:00:00 21 27 Nordeste 45 Nordeste 0 -- -- 57
2019-11-15 13:00:00 21.4 27 Nordeste 39 Nordeste 0 -- -- 54
2019-11-15 12:00:00 21.4 22 Nordeste 42 Nordeste 0 -- -- 54
2019-11-15 11:00:00 20 28 Nordeste 45 Nordeste 0 -- -- 62
2019-11-15 10:00:00 21.1 16 Nordeste 31 Norte 0 -- -- 60
2019-11-15 09:00:00 18.5 10 Nordeste 30 Nordeste 0 -- -- 73
2019-11-15 08:00:00 18.3 6 Nordeste 13 Nordeste 0 -- -- 71
2019-11-15 07:00:00 18.1 9 Nordeste 13 Nordeste 0 -- -- 72
2019-11-15 06:00:00 18 5 Nordeste 13 Nordeste 0 -- -- 70
2019-11-15 05:00:00 18.4 6 Nordeste 17 Norte 0 -- -- 65
2019-11-15 04:00:00 19 9 Nordeste 24 Norte 0 -- -- 60
2019-11-15 03:00:00 19.5 14 Nordeste 39 Nordeste 0 -- -- 58
2019-11-15 02:00:00 19.7 19 Nordeste 33 Nordeste 0 -- -- 64
2019-11-15 01:00:00 19.8 19 Nordeste 36 Norte 0 -- -- 61
2019-11-15 00:00:00 19.6 14 Nordeste 32 Nordeste 0 -- -- 61
2019-11-14 23:00:00 20 20 Nordeste 32 Norte 0 -- -- 58
2019-11-14 22:00:00 20 19 Nordeste 33 Nordeste 0 -- -- 65
2019-11-14 21:00:00 20.1 22 Nordeste 33 Nordeste 0 -- -- 68
2019-11-14 20:00:00 20.2 19 Nordeste 39 Nordeste 0 -- -- 67
2019-11-14 19:00:00 20.4 23 Nordeste 35 Nordeste 0 -- -- 72
2019-11-14 18:00:00 20.6 18 Nordeste 37 Nordeste 0 -- -- 68
2019-11-14 17:00:00 21.2 23 Nordeste 36 Nordeste 0 -- -- 62
2019-11-14 16:00:00 21.8 23 Nordeste 37 Nordeste 0 -- -- 59
2019-11-14 15:00:00 -- -- -- -- -- -- -- -- --
2019-11-14 14:00:00 -- -- -- -- -- -- -- -- --
2019-11-14 13:00:00 -- -- -- -- -- -- -- -- --
2019-11-14 12:00:00 22.2 20 Nordeste 41 Nordeste 0 -- -- 63
2019-11-14 11:00:00 21.6 24 Nordeste 39 Nordeste 0 -- -- 63
2019-11-14 10:00:00 21 22 Nordeste 39 Nordeste 0 -- -- 67
2019-11-14 09:00:00 20.4 21 Nordeste 33 Nordeste 0 -- -- 69
2019-11-14 08:00:00 19.7 21 Nordeste 33 Norte 0 -- -- 73
2019-11-14 07:00:00 19.3 14 Nordeste 23 Nordeste 0 -- -- 75
2019-11-14 06:00:00 18.9 13 Nordeste 26 Norte 0 -- -- 74
2019-11-14 05:00:00 18.9 15 Nordeste 26 Norte 0 -- -- 73
2019-11-14 04:00:00 18.8 17 Norte 30 Nordeste 0 -- -- 73
2019-11-14 03:00:00 18.6 10 Norte 24 Norte 0 -- -- 72
2019-11-14 02:00:00 18.5 13 Norte 24 Norte 0 -- -- 70
2019-11-14 01:00:00 18.8 13 Nordeste 25 Nordeste 0 -- -- 70
2019-11-14 00:00:00 19.2 18 Nordeste 31 Nordeste 0 -- -- 68
2019-11-13 23:00:00 19.3 17 Nordeste 35 Nordeste 0 -- -- 68
2019-11-13 22:00:00 19.5 19 Nordeste 33 Nordeste 0 -- -- 67
2019-11-13 21:00:00 19.7 25 Nordeste 37 Norte 0 -- -- 67
2019-11-13 20:00:00 19.8 21 Nordeste 37 Nordeste 0 -- -- 66
2019-11-13 19:00:00 20.3 24 Nordeste 37 Nordeste 0 -- -- 63
2019-11-13 18:00:00 21.3 17 Norte 39 Nordeste 0 -- -- 59
2019-11-13 17:00:00 22.5 28 Nordeste 42 Norte 0 -- -- 51
2019-11-13 16:00:00 23.4 26 Nordeste 51 Nordeste 0 -- -- 50
2019-11-13 15:00:00 23.4 35 Nordeste 50 Nordeste 0 -- -- 50
2019-11-13 14:00:00 23.9 34 Nordeste 50 Nordeste 0 -- -- 46
2019-11-13 13:00:00 22.8 35 Nordeste 53 Nordeste 0 -- -- 54
2019-11-13 12:00:00 22.6 35 Nordeste 58 Nordeste 0 -- -- 57
2019-11-13 11:00:00 22.4 35 Nordeste 52 Norte 0 -- -- 58
2019-11-13 10:00:00 21.5 32 Nordeste 48 Nordeste 0 -- -- 63
2019-11-13 09:00:00 20.6 27 Nordeste 44 Nordeste 0 -- -- 66
2019-11-13 08:00:00 19.3 17 Norte 27 Norte 0 -- -- 70
2019-11-13 07:00:00 18.8 14 Norte 34 Norte 0 -- -- 72
2019-11-13 06:00:00 18.8 15 Norte 30 Norte 0 -- -- 74
2019-11-13 05:00:00 19 13 Norte 26 Norte 0 -- -- 71
2019-11-13 04:00:00 19.1 14 Nordeste 36 Nordeste 0 -- -- 69
2019-11-13 03:00:00 19.9 26 Nordeste 36 Nordeste 0 -- -- 63
2019-11-13 02:00:00 19.8 15 Norte 34 Norte 0 -- -- 61
2019-11-13 01:00:00 19.8 18 Norte 30 Norte 0 -- -- 62
2019-11-13 00:00:00 19.3 16 Norte 27 Norte 0 -- -- 69
2019-11-12 23:00:00 19.6 11 Norte 24 Norte 0 -- -- 65
2019-11-12 22:00:00 19.6 15 Norte 27 Norte 0 -- -- 67
2019-11-12 21:00:00 20 12 Norte 28 Nordeste 0 -- -- 64
2019-11-12 20:00:00 20.2 9 Nordeste 28 Norte 0 -- -- 63
2019-11-12 19:00:00 20.7 16 Norte 34 Norte 0 -- -- 63
2019-11-12 18:00:00 22 17 Norte 37 Norte 0 -- -- 59
2019-11-12 17:00:00 23.5 21 Norte 39 Norte 0 -- -- 55
2019-11-12 16:00:00 24.8 22 Norte 40 Nordeste 0 -- -- 52
2019-11-12 15:00:00 25.4 25 Nordeste 50 Nordeste 0 -- -- 44
2019-11-12 14:00:00 25.3 28 Nordeste 44 Norte 0 -- -- 47
2019-11-12 13:00:00 24.7 28 Nordeste 45 Nordeste 0 -- -- 54
2019-11-12 12:00:00 23.8 31 Nordeste 47 Nordeste 0 -- -- 63
2019-11-12 11:00:00 22.9 30 Nordeste 47 Nordeste 0 -- -- 66
2019-11-12 10:00:00 22.6 33 Nordeste 47 Nordeste 0 -- -- 66
2019-11-12 09:00:00 21.8 29 Nordeste 42 Nordeste 0 -- -- 68
2019-11-12 08:00:00 20.9 26 Nordeste 43 Norte 0 -- -- 71
2019-11-12 07:00:00 20.7 21 Nordeste 45 Norte 0 -- -- 70
2019-11-12 06:00:00 20.4 22 Nordeste 36 Nordeste 0 -- -- 71
2019-11-12 05:00:00 19.7 10 Nordeste 29 Noroeste 0 -- -- 74
2019-11-12 04:00:00 19.3 6 Norte 17 Norte 0 -- -- 74
2019-11-12 03:00:00 19.4 9 Norte 39 Nordeste 0 -- -- 71
2019-11-12 02:00:00 20.1 22 Nordeste 45 Nordeste 0 -- -- 68
2019-11-12 01:00:00 20.1 19 Nordeste 37 Nordeste 0 -- -- 67
2019-11-12 00:00:00 20.1 17 Norte 36 Norte 0 -- -- 69
2019-11-11 23:00:00 20.5 22 Nordeste 42 Norte 0 -- -- 69
2019-11-11 22:00:00 20.6 19 Norte 46 Norte 0 -- -- 68
2019-11-11 21:00:00 20.5 19 Norte 42 Nordeste 0 -- -- 70
2019-11-11 20:00:00 20.8 32 Nordeste 49 Nordeste 0 -- -- 66
2019-11-11 19:00:00 21 28 Norte 47 Norte 0 -- -- 65
2019-11-11 18:00:00 21.4 26 Norte 50 Norte 0 -- -- 66
2019-11-11 17:00:00 22.3 32 Norte 53 Norte 0 -- -- 61
2019-11-11 16:00:00 23.9 28 Norte 51 Norte 0 -- -- 56
2019-11-11 15:00:00 24.6 28 Nordeste 53 Nordeste 0 -- -- 53
2019-11-11 14:00:00 24.5 30 Nordeste 52 Nordeste 0 -- -- 53
2019-11-11 13:00:00 24 34 Nordeste 50 Nordeste 0 -- -- 51
2019-11-11 12:00:00 23.4 30 Nordeste 49 Nordeste 0 -- -- 55
2019-11-11 11:00:00 22.7 32 Nordeste 54 Nordeste 0 -- -- 54
2019-11-11 10:00:00 22.2 27 Norte 48 Norte 0 -- -- 56
2019-11-11 09:00:00 21.1 26 Norte 42 Nordeste 0 -- -- 59
2019-11-11 08:00:00 19.8 20 Nordeste 36 Norte 0 -- -- 65
2019-11-11 07:00:00 19.3 17 Nordeste 33 Nordeste 0 -- -- 68
2019-11-11 06:00:00 19 14 Norte 32 Norte 0 -- -- 69
2019-11-11 05:00:00 19.3 13 Norte 33 Norte 0 -- -- 66
2019-11-11 04:00:00 19.5 23 Nordeste 43 Norte 0 -- -- 63
2019-11-11 03:00:00 19.3 19 Norte 31 Nordeste 0 -- -- 62
2019-11-11 02:00:00 19.7 21 Nordeste 37 Norte 0 -- -- 65
2019-11-11 01:00:00 19.8 21 Nordeste 38 Nordeste 0 -- -- 63
2019-11-11 00:00:00 20 18 Nordeste 36 Nordeste 0 -- -- 66
2019-11-10 23:00:00 20.1 24 Nordeste 38 Norte 0 -- -- 67
2019-11-10 22:00:00 20.1 21 Nordeste 37 Nordeste 0 -- -- 64
2019-11-10 21:00:00 19.9 26 Nordeste 44 Nordeste 0 -- -- 66
2019-11-10 20:00:00 20 24 Nordeste 39 Nordeste 0 -- -- 65
2019-11-10 19:00:00 20.4 24 Nordeste 41 Nordeste 0 -- -- 72
2019-11-10 18:00:00 21.3 28 Nordeste 45 Nordeste 0 -- -- 71
2019-11-10 17:00:00 21.8 30 Nordeste 49 Nordeste 0 -- -- 69
2019-11-10 16:00:00 22.3 33 Nordeste 58 Nordeste 0 -- -- 64
2019-11-10 15:00:00 22.5 30 Nordeste 57 Este 0 -- -- 62
2019-11-10 14:00:00 22.2 41 Nordeste 61 Nordeste 0 -- -- 61
2019-11-10 13:00:00 22.6 34 Nordeste 53 Nordeste 0 -- -- 56
2019-11-10 12:00:00 22 29 Nordeste 73 Nordeste 0 -- -- 56
2019-11-10 11:00:00 21.6 33 Nordeste 51 Norte 0 -- -- 58
2019-11-10 10:00:00 20.9 29 Nordeste 48 Nordeste 0 -- -- 61
2019-11-10 09:00:00 20.1 27 Nordeste 42 Norte 0 -- -- 64
2019-11-10 08:00:00 19.2 23 Nordeste 42 Nordeste 0 -- -- 68
2019-11-10 07:00:00 18.9 26 Nordeste 40 Nordeste 0 -- -- 69
2019-11-10 06:00:00 18.9 28 Nordeste 45 Nordeste 0 -- -- 68
2019-11-10 05:00:00 19 26 Nordeste 45 Nordeste 0 -- -- 66
2019-11-10 04:00:00 19.2 24 Nordeste 43 Norte 0 -- -- 66
2019-11-10 03:00:00 19.2 25 Nordeste 42 Nordeste 0 -- -- 67
2019-11-10 02:00:00 19.1 23 Nordeste 41 Nordeste 0 -- -- 66
2019-11-10 01:00:00 19.3 22 Nordeste 41 Norte 0 -- -- 66
2019-11-10 00:00:00 19.4 21 Nordeste 42 Nordeste 0 -- -- 66